createdAt,value
2023-05-05T00:01:35.576Z,12.81
2023-05-05T00:04:02.870Z,13.30
2023-05-05T00:06:30.249Z,13.90
2023-05-05T00:08:57.251Z,14.00
2023-05-05T00:11:26.134Z,13.87
2023-05-05T00:13:53.064Z,13.64
2023-05-05T00:16:20.419Z,13.42
2023-05-05T00:18:48.114Z,13.22
2023-05-05T00:21:15.750Z,13.05
2023-05-05T00:23:42.761Z,12.91
2023-05-05T00:26:09.713Z,12.78
2023-05-05T00:28:38.365Z,13.29
2023-05-05T00:31:05.744Z,13.93
2023-05-05T00:33:33.294Z,14.03
2023-05-05T00:36:00.445Z,13.88
2023-05-05T00:38:27.461Z,13.63
2023-05-05T00:40:54.474Z,13.39
2023-05-05T00:43:21.507Z,13.17
2023-05-05T00:45:48.515Z,12.99
2023-05-05T00:48:17.123Z,12.82
2023-05-05T00:50:45.230Z,12.67
2023-05-05T00:53:12.288Z,13.20
2023-05-05T00:55:39.247Z,13.83
2023-05-05T00:58:06.452Z,13.95
2023-05-05T01:00:34.310Z,13.79
2023-05-05T01:03:01.666Z,13.54
2023-05-05T01:05:41.905Z,13.30
2023-05-05T01:08:27.765Z,13.07
2023-05-05T01:10:59.009Z,12.84
2023-05-05T01:13:39.525Z,13.39
2023-05-05T01:16:14.300Z,14.00
2023-05-05T01:18:46.336Z,14.03
2023-05-05T01:21:15.485Z,13.83
2023-05-05T01:24:07.974Z,13.52
2023-05-05T01:26:47.261Z,13.22
2023-05-05T01:29:20.460Z,12.99
2023-05-05T01:31:52.025Z,12.79
2023-05-05T01:34:31.404Z,12.59
2023-05-05T01:37:07.647Z,13.17
2023-05-05T01:39:35.080Z,13.77
2023-05-05T01:42:05.404Z,13.85
2023-05-05T01:44:33.930Z,13.70
2023-05-05T01:47:01.067Z,13.47
2023-05-05T01:49:28.215Z,13.26
2023-05-05T01:51:56.055Z,13.07
2023-05-05T01:54:24.425Z,12.90
2023-05-05T01:56:51.578Z,12.73
2023-05-05T01:59:18.626Z,12.55
2023-05-05T02:01:47.313Z,12.38
2023-05-05T02:04:14.576Z,12.85
2023-05-05T02:06:42.044Z,13.45
2023-05-05T02:09:12.873Z,13.53
2023-05-05T02:11:40.088Z,13.31
2023-05-05T02:14:07.147Z,13.05
2023-05-05T02:16:34.297Z,12.76
2023-05-05T02:19:02.588Z,12.52
2023-05-05T02:21:29.796Z,12.32
2023-05-05T02:23:56.819Z,12.12
2023-05-05T02:26:23.794Z,12.59
2023-05-05T02:29:02.444Z,13.20
2023-05-05T02:31:30.248Z,13.29
2023-05-05T02:33:58.304Z,13.15
2023-05-05T02:36:27.937Z,12.93
2023-05-05T02:39:01.292Z,12.71
2023-05-05T02:41:29.793Z,12.47
2023-05-05T02:43:57.427Z,12.26
2023-05-05T02:46:25.515Z,12.03
2023-05-05T02:48:52.617Z,12.49
2023-05-05T02:51:19.556Z,13.11
2023-05-05T02:53:46.631Z,13.22
2023-05-05T02:56:17.300Z,13.06
2023-05-05T02:58:53.337Z,12.81
2023-05-05T03:01:28.124Z,12.58
2023-05-05T03:04:07.547Z,12.35
2023-05-05T03:06:40.814Z,12.12
2023-05-05T03:09:16.135Z,11.89
2023-05-05T03:12:05.603Z,12.35
2023-05-05T03:14:42.691Z,13.19
2023-05-05T03:17:11.941Z,13.28
2023-05-05T03:19:43.553Z,13.13
2023-05-05T03:22:10.660Z,12.90
2023-05-05T03:24:40.046Z,12.65
2023-05-05T03:27:08.946Z,12.39
2023-05-05T03:29:38.001Z,12.17
2023-05-05T03:32:08.631Z,11.98
2023-05-05T03:34:37.528Z,11.79
2023-05-05T03:37:05.143Z,12.30
2023-05-05T03:39:32.907Z,12.92
2023-05-05T03:42:00.798Z,13.03
2023-05-05T03:44:30.709Z,12.88
2023-05-05T03:46:57.892Z,12.68
2023-05-05T03:49:25.623Z,12.48
2023-05-05T03:51:52.557Z,12.30
2023-05-05T03:54:19.739Z,12.13
2023-05-05T03:56:46.948Z,11.98
2023-05-05T03:59:13.950Z,12.51
2023-05-05T04:01:41.556Z,13.17
2023-05-05T04:04:09.623Z,13.31
2023-05-05T04:06:37.065Z,13.17
2023-05-05T04:09:05.801Z,12.96
2023-05-05T04:11:32.850Z,12.74
2023-05-05T04:14:00.740Z,12.57
2023-05-05T04:16:28.371Z,12.44
2023-05-05T04:18:56.125Z,12.34
2023-05-05T04:21:23.226Z,12.89
2023-05-05T04:23:50.534Z,13.61
2023-05-05T04:26:17.576Z,13.82
2023-05-05T04:28:46.070Z,13.76
2023-05-05T04:31:14.061Z,13.60
2023-05-05T04:33:41.948Z,13.42
2023-05-05T04:36:09.089Z,13.29
2023-05-05T04:38:37.827Z,13.14
2023-05-05T04:41:06.526Z,13.04
2023-05-05T04:43:34.397Z,12.94
2023-05-05T04:46:01.855Z,13.48
2023-05-05T04:48:30.994Z,14.23
2023-05-05T04:50:58.053Z,14.46
2023-05-05T04:53:25.314Z,14.44
2023-05-05T04:55:52.357Z,14.35
2023-05-05T04:58:19.356Z,14.23
2023-05-05T05:00:46.603Z,14.17
2023-05-05T05:03:13.878Z,14.17
2023-05-05T05:05:40.867Z,14.21
2023-05-05T05:08:08.412Z,14.31
2023-05-05T05:10:36.000Z,14.54
2023-05-05T05:13:03.739Z,14.77
2023-05-05T05:15:31.261Z,14.87
2023-05-05T05:17:58.240Z,14.93
2023-05-05T05:20:25.250Z,14.97
2023-05-05T05:22:52.294Z,14.96
2023-05-05T05:25:19.684Z,14.90
2023-05-05T05:27:52.302Z,14.89
2023-05-05T05:30:30.368Z,14.86
2023-05-05T05:32:57.931Z,14.88
2023-05-05T05:35:25.796Z,14.93
2023-05-05T05:37:53.127Z,15.02
2023-05-05T05:40:20.617Z,15.09
2023-05-05T05:42:47.580Z,15.12
2023-05-05T05:45:14.772Z,15.08
2023-05-05T05:47:42.362Z,15.02
2023-05-05T05:50:10.236Z,15.02
2023-05-05T05:52:37.954Z,15.04
2023-05-05T05:55:06.780Z,15.14
2023-05-05T05:57:34.558Z,15.38
2023-05-05T06:00:02.453Z,15.58
2023-05-05T06:02:39.679Z,15.91
2023-05-05T06:05:09.337Z,16.38
2023-05-05T06:07:37.816Z,17.10
2023-05-05T06:10:22.661Z,17.82
2023-05-05T06:12:54.017Z,18.66
2023-05-05T06:15:21.023Z,19.46
2023-05-05T06:17:48.156Z,20.22
2023-05-05T06:20:15.362Z,20.70
2023-05-05T06:22:42.654Z,20.55
2023-05-05T06:25:10.093Z,20.87
2023-05-05T06:27:37.951Z,21.39
2023-05-05T06:30:06.905Z,21.63
2023-05-05T06:32:34.667Z,21.89
2023-05-05T06:35:01.624Z,22.52
2023-05-05T06:37:28.510Z,23.08
2023-05-05T06:39:56.859Z,23.48
2023-05-05T06:42:23.792Z,24.08
2023-05-05T06:44:51.938Z,24.14
2023-05-05T06:47:18.912Z,23.87
2023-05-05T06:49:45.864Z,24.11
2023-05-05T06:52:12.769Z,24.30
2023-05-05T06:54:39.890Z,24.34
2023-05-05T06:57:06.825Z,24.66
2023-05-05T06:59:33.957Z,24.99
2023-05-05T07:02:01.027Z,25.20
2023-05-05T07:04:28.232Z,25.27
2023-05-05T07:06:55.412Z,25.19
2023-05-05T07:09:22.738Z,25.27
2023-05-05T07:11:49.773Z,25.53
2023-05-05T07:14:16.978Z,25.72
2023-05-05T07:16:44.162Z,25.97
2023-05-05T07:19:11.213Z,26.11
2023-05-05T07:21:39.743Z,26.12
2023-05-05T07:24:07.158Z,26.25
2023-05-05T07:26:34.460Z,26.50
2023-05-05T07:29:02.671Z,26.80
2023-05-05T07:31:29.815Z,27.07
2023-05-05T07:33:56.801Z,27.27
2023-05-05T07:36:23.729Z,27.23
2023-05-05T07:38:50.666Z,27.27
2023-05-05T07:41:18.549Z,27.23
2023-05-05T07:43:46.152Z,27.13
2023-05-05T07:46:13.958Z,27.23
2023-05-05T07:48:41.828Z,27.22
2023-05-05T07:51:09.363Z,27.14
2023-05-05T07:53:37.010Z,27.31
2023-05-05T07:56:06.413Z,27.38
2023-05-05T07:58:33.583Z,27.57
2023-05-05T08:01:01.463Z,27.72
2023-05-05T08:03:28.711Z,27.63
2023-05-05T08:05:56.568Z,27.32
2023-05-05T08:08:27.084Z,27.44
2023-05-05T08:10:54.565Z,27.55
2023-05-05T08:13:21.682Z,27.79
2023-05-05T08:15:48.609Z,28.07
2023-05-05T08:18:16.039Z,28.31
2023-05-05T08:20:43.069Z,28.33
2023-05-05T08:23:09.980Z,28.22
2023-05-05T08:25:36.972Z,28.30
2023-05-05T08:28:03.993Z,28.60
2023-05-05T08:30:31.115Z,28.55
2023-05-05T08:32:59.168Z,28.51
2023-05-05T08:35:26.179Z,28.83
2023-05-05T08:37:53.130Z,28.88
2023-05-05T08:40:21.137Z,28.92
2023-05-05T08:42:48.682Z,28.75
2023-05-05T08:45:16.143Z,28.66
2023-05-05T08:47:43.946Z,28.79
2023-05-05T08:50:11.482Z,28.88
2023-05-05T08:52:40.708Z,28.98
2023-05-05T08:55:10.647Z,29.17
2023-05-05T08:57:57.365Z,29.24
2023-05-05T09:00:24.597Z,29.13
2023-05-05T09:02:51.897Z,29.32
2023-05-05T09:05:19.009Z,29.68
2023-05-05T09:07:47.507Z,29.82
2023-05-05T09:10:14.557Z,29.70
2023-05-05T09:12:42.838Z,29.74
2023-05-05T09:15:11.690Z,29.43
2023-05-05T09:17:39.256Z,29.10
2023-05-05T09:20:07.468Z,29.16
2023-05-05T09:22:38.410Z,29.32
2023-05-05T09:25:05.610Z,29.55
2023-05-05T09:27:36.773Z,29.63
2023-05-05T09:30:05.732Z,29.77
2023-05-05T09:32:49.009Z,29.77
2023-05-05T09:35:16.689Z,29.84
2023-05-05T09:37:43.703Z,30.07
2023-05-05T09:40:15.757Z,30.15
2023-05-05T09:42:44.766Z,30.26
2023-05-05T09:45:17.803Z,30.48
2023-05-05T09:47:49.091Z,30.62
2023-05-05T09:50:18.983Z,30.74
2023-05-05T09:53:02.748Z,30.60
2023-05-05T09:55:31.378Z,30.43
2023-05-05T09:58:19.552Z,30.28
2023-05-05T10:00:46.893Z,30.53
2023-05-05T10:03:14.019Z,30.98
2023-05-05T10:05:57.833Z,31.04
2023-05-05T10:08:26.704Z,30.64
2023-05-05T10:10:58.505Z,29.77
2023-05-05T10:13:25.523Z,29.47
2023-05-05T10:15:56.602Z,29.72
2023-05-05T10:18:25.794Z,29.82
2023-05-05T10:21:00.732Z,30.01
2023-05-05T10:23:33.219Z,30.02
2023-05-05T10:26:06.226Z,30.52
2023-05-05T10:28:35.710Z,30.77
2023-05-05T10:31:07.647Z,30.99
2023-05-05T10:33:53.368Z,31.47
2023-05-05T10:36:20.420Z,31.39
2023-05-05T10:38:47.296Z,30.94
2023-05-05T10:41:17.305Z,30.13
2023-05-05T10:43:44.397Z,29.70
2023-05-05T10:46:11.483Z,29.70
2023-05-05T10:48:42.817Z,30.01
2023-05-05T10:51:38.479Z,30.46
2023-05-05T10:54:39.660Z,29.96
2023-05-05T10:57:08.203Z,30.03
2023-05-05T10:59:38.648Z,29.12
2023-05-05T11:02:26.600Z,28.83
2023-05-05T11:05:23.465Z,27.76
2023-05-05T11:07:51.308Z,26.75
2023-05-05T11:10:23.362Z,25.76
2023-05-05T11:13:02.098Z,25.38
2023-05-05T11:15:29.994Z,25.84
2023-05-05T11:17:58.359Z,26.77
2023-05-05T11:20:39.798Z,27.68
2023-05-05T11:23:07.038Z,28.33
2023-05-05T11:25:38.173Z,28.75
2023-05-05T11:28:05.911Z,29.33
2023-05-05T11:30:33.151Z,29.46
2023-05-05T11:33:23.198Z,29.35
2023-05-05T11:35:59.360Z,29.23
2023-05-05T11:38:29.964Z,28.95
2023-05-05T11:41:02.242Z,28.47
2023-05-05T11:43:29.613Z,27.86
2023-05-05T11:46:12.902Z,27.70
2023-05-05T11:48:50.196Z,28.04
2023-05-05T11:51:18.078Z,28.04
2023-05-05T11:53:46.570Z,28.13
2023-05-05T11:56:19.269Z,28.51
2023-05-05T11:58:47.167Z,28.82
2023-05-05T12:01:14.096Z,28.95
2023-05-05T12:03:41.380Z,29.03
2023-05-05T12:06:09.551Z,28.86
2023-05-05T12:08:40.573Z,28.39
2023-05-05T12:11:08.665Z,28.00
2023-05-05T12:13:36.208Z,27.58
2023-05-05T12:16:13.855Z,27.74
2023-05-05T12:18:42.086Z,28.30
2023-05-05T12:21:18.776Z,28.77
2023-05-05T12:23:46.121Z,28.99
2023-05-05T12:26:33.350Z,29.08
2023-05-05T12:29:00.888Z,29.19
2023-05-05T12:31:41.544Z,29.40
2023-05-05T12:34:09.450Z,29.19
2023-05-05T12:36:36.801Z,28.91
2023-05-05T12:39:07.238Z,28.79
2023-05-05T12:41:34.787Z,28.99
2023-05-05T12:44:03.107Z,29.17
2023-05-05T12:46:31.301Z,29.30
2023-05-05T12:49:06.097Z,29.44
2023-05-05T12:51:34.292Z,29.33
2023-05-05T12:54:09.998Z,28.93
2023-05-05T12:56:41.516Z,28.88
2023-05-05T12:59:12.574Z,29.09
2023-05-05T13:01:49.196Z,29.39
2023-05-05T13:04:16.586Z,29.38
2023-05-05T13:06:45.163Z,29.42
2023-05-05T13:09:24.728Z,29.28
2023-05-05T13:11:53.458Z,28.98
2023-05-05T13:14:20.614Z,28.51
2023-05-05T13:16:47.501Z,27.96
2023-05-05T13:19:14.491Z,27.43
2023-05-05T13:21:41.909Z,27.02
2023-05-05T13:24:25.310Z,26.53
2023-05-05T13:26:56.655Z,26.15
2023-05-05T13:29:27.265Z,25.98
2023-05-05T13:31:57.129Z,25.99
2023-05-05T13:34:24.116Z,25.87
2023-05-05T13:36:51.012Z,25.75
2023-05-05T13:39:18.154Z,25.44
2023-05-05T13:41:45.543Z,25.19
2023-05-05T13:44:13.983Z,25.28
2023-05-05T13:46:42.626Z,25.29
2023-05-05T13:49:09.626Z,25.35
2023-05-05T13:51:38.376Z,25.49
2023-05-05T13:54:06.640Z,25.49
2023-05-05T13:56:34.329Z,25.21
2023-05-05T13:59:01.761Z,24.94
2023-05-05T14:01:29.686Z,24.60
2023-05-05T14:03:57.624Z,24.38
2023-05-05T14:06:26.038Z,24.11
2023-05-05T14:08:53.471Z,23.80
2023-05-05T14:11:20.869Z,23.53
2023-05-05T14:13:48.221Z,23.19
2023-05-05T14:16:15.403Z,22.96
2023-05-05T14:18:42.710Z,22.69
2023-05-05T14:21:10.071Z,22.42
2023-05-05T14:23:37.248Z,22.15
2023-05-05T14:26:06.923Z,21.91
2023-05-05T14:28:34.351Z,21.77
2023-05-05T14:31:01.923Z,21.72
2023-05-05T14:33:28.811Z,22.00
2023-05-05T14:35:55.912Z,22.22
2023-05-05T14:38:23.086Z,22.32
2023-05-05T14:40:50.122Z,22.36
2023-05-05T14:43:17.087Z,22.43
2023-05-05T14:45:44.456Z,22.51
2023-05-05T14:48:12.186Z,22.66
2023-05-05T14:50:40.766Z,22.92
2023-05-05T14:53:08.120Z,23.14
2023-05-05T14:55:35.440Z,23.28
2023-05-05T14:58:02.310Z,23.32
2023-05-05T15:00:29.509Z,23.34
2023-05-05T15:02:56.801Z,23.39
2023-05-05T15:05:23.822Z,23.42
2023-05-05T15:07:51.022Z,23.47
2023-05-05T15:10:19.717Z,23.53
2023-05-05T15:12:48.938Z,23.62
2023-05-05T15:15:16.199Z,23.70
2023-05-05T15:17:43.470Z,23.67
2023-05-05T15:20:11.270Z,23.64
2023-05-05T15:22:38.684Z,23.60
2023-05-05T15:25:09.635Z,23.41
2023-05-05T15:27:38.127Z,23.51
2023-05-05T15:30:06.140Z,23.64
2023-05-05T15:32:34.163Z,23.47
2023-05-05T15:35:01.199Z,23.37
2023-05-05T15:37:28.998Z,23.46
2023-05-05T15:39:56.999Z,23.49
2023-05-05T15:42:24.512Z,23.28
2023-05-05T15:44:51.640Z,23.07
2023-05-05T15:47:18.825Z,22.90
2023-05-05T15:49:45.894Z,22.78
2023-05-05T15:52:14.035Z,22.67
2023-05-05T15:56:58.348Z,22.26
2023-05-05T15:59:26.150Z,22.30
2023-05-05T16:01:53.202Z,22.26
2023-05-05T16:04:20.363Z,22.09
2023-05-05T16:06:47.468Z,21.86
2023-05-05T16:09:14.374Z,21.85
2023-05-05T16:11:41.529Z,21.84
2023-05-05T16:14:08.495Z,21.92
2023-05-05T16:16:35.502Z,21.85
2023-05-05T16:19:02.521Z,21.86
2023-05-05T16:21:29.717Z,21.87
2023-05-05T16:23:56.970Z,21.69
2023-05-05T16:26:23.961Z,21.62
2023-05-05T16:28:51.447Z,21.62
2023-05-05T16:31:18.361Z,21.64
2023-05-05T16:33:45.846Z,21.65
2023-05-05T16:36:13.269Z,21.57
2023-05-05T16:38:40.454Z,21.28
2023-05-05T16:41:07.835Z,21.07
2023-05-05T16:43:37.305Z,21.03
2023-05-05T16:46:04.410Z,20.95
2023-05-05T16:48:31.656Z,20.91
2023-05-05T16:50:58.884Z,20.90
2023-05-05T16:53:26.097Z,20.83
2023-05-05T16:55:53.613Z,20.71
2023-05-05T16:58:21.291Z,20.64
2023-05-05T17:00:49.312Z,20.52
2023-05-05T17:03:17.147Z,20.39
2023-05-05T17:05:44.664Z,20.29
2023-05-05T17:08:14.231Z,20.21
2023-05-05T17:10:42.030Z,20.11
2023-05-05T17:13:09.848Z,19.93
2023-05-05T17:15:37.615Z,19.74
2023-05-05T17:18:05.916Z,19.58
2023-05-05T17:20:32.950Z,19.44
2023-05-05T17:23:00.148Z,19.29
2023-05-05T17:25:27.109Z,19.18
2023-05-05T17:27:57.423Z,19.06
2023-05-05T17:30:24.439Z,18.91
2023-05-05T17:32:51.589Z,18.80
2023-05-05T17:35:18.596Z,18.65
2023-05-05T17:37:45.682Z,18.51
2023-05-05T17:40:12.794Z,18.31
2023-05-05T17:42:40.633Z,18.14
2023-05-05T17:45:08.640Z,17.95
2023-05-05T17:47:37.545Z,17.74
2023-05-05T17:50:05.318Z,17.58
2023-05-05T17:52:32.576Z,17.44
2023-05-05T17:54:59.574Z,17.35
2023-05-05T17:57:26.762Z,17.23
2023-05-05T17:59:53.888Z,17.09
2023-05-05T18:02:21.088Z,16.93
2023-05-05T18:04:48.523Z,16.79
2023-05-05T18:07:15.432Z,16.70
2023-05-05T18:09:42.729Z,16.59
2023-05-05T18:12:09.925Z,16.44
2023-05-05T18:14:36.910Z,16.31
2023-05-05T18:17:05.096Z,16.20
2023-05-05T18:19:32.589Z,16.11
2023-05-05T18:21:59.637Z,16.04
2023-05-05T18:24:27.640Z,15.96
2023-05-05T18:26:54.731Z,15.91
2023-05-05T18:29:22.083Z,15.87
2023-05-05T18:31:52.103Z,15.82
2023-05-05T18:34:19.460Z,15.76
2023-05-05T18:36:47.113Z,15.65
2023-05-05T18:39:14.632Z,15.53
2023-05-05T18:41:41.607Z,15.38
2023-05-05T18:44:08.900Z,15.23
2023-05-05T18:46:37.700Z,15.12
2023-05-05T18:49:04.848Z,14.98
2023-05-05T18:51:32.371Z,14.83
2023-05-05T18:54:00.822Z,14.68
2023-05-05T18:56:28.037Z,14.56
2023-05-05T18:58:56.290Z,14.44
2023-05-05T19:01:26.801Z,14.31
2023-05-05T19:03:54.212Z,14.18
2023-05-05T19:06:21.555Z,14.06
2023-05-05T19:08:48.759Z,13.97
2023-05-05T19:11:16.096Z,13.89
2023-05-05T19:13:44.065Z,13.80
2023-05-05T19:16:11.361Z,13.71
2023-05-05T19:18:40.536Z,13.64
2023-05-05T19:21:07.579Z,13.56
2023-05-05T19:23:36.156Z,13.51
2023-05-05T19:26:06.031Z,13.44
2023-05-05T19:28:33.346Z,13.36
2023-05-05T19:31:00.605Z,13.28
2023-05-05T19:33:28.738Z,13.18
2023-05-05T19:35:55.737Z,13.09
2023-05-05T19:38:23.178Z,13.02
2023-05-05T19:40:50.508Z,12.91
2023-05-05T19:43:17.546Z,12.84
2023-05-05T19:45:44.471Z,12.79
2023-05-05T19:48:11.733Z,12.71
2023-05-05T19:50:38.672Z,12.63
2023-05-05T19:53:06.006Z,12.54
2023-05-05T19:55:33.305Z,12.46
2023-05-05T19:58:00.394Z,12.33
2023-05-05T20:00:27.395Z,12.22
2023-05-05T20:02:54.542Z,12.14
2023-05-05T20:05:21.613Z,12.12
2023-05-05T20:07:50.227Z,12.07
2023-05-05T20:10:17.935Z,12.05
2023-05-05T20:12:48.839Z,12.03
2023-05-05T20:15:19.705Z,12.02
2023-05-05T20:17:47.209Z,12.00
2023-05-05T20:20:23.979Z,11.96
2023-05-05T20:22:51.221Z,11.92
2023-05-05T20:25:18.258Z,11.91
2023-05-05T20:27:45.987Z,11.94
2023-05-05T20:30:13.508Z,11.97
2023-05-05T20:32:40.967Z,11.93
2023-05-05T20:35:09.225Z,11.87
2023-05-05T20:37:37.032Z,11.78
2023-05-05T20:40:04.219Z,11.78
2023-05-05T20:42:31.880Z,11.83
2023-05-05T20:45:01.028Z,11.82
2023-05-05T20:47:28.696Z,11.79
2023-05-05T20:49:56.253Z,11.81
2023-05-05T20:52:23.413Z,11.83
2023-05-05T20:54:50.522Z,11.80
2023-05-05T20:57:17.560Z,11.77
2023-05-05T20:59:44.609Z,11.76
2023-05-05T21:02:11.666Z,11.74
2023-05-05T21:04:38.662Z,11.71
2023-05-05T21:07:05.794Z,11.69
2023-05-05T21:09:35.399Z,11.69
2023-05-05T21:12:02.592Z,11.68
2023-05-05T21:14:30.293Z,11.66
2023-05-05T21:16:57.325Z,11.62
2023-05-05T21:19:24.395Z,11.61
2023-05-05T21:21:51.412Z,11.62
2023-05-05T21:24:18.562Z,11.61
2023-05-05T21:26:45.672Z,11.60
2023-05-05T21:29:12.708Z,11.59
2023-05-05T21:31:39.839Z,11.55
2023-05-05T21:34:07.029Z,11.54
2023-05-05T21:36:34.508Z,11.51
2023-05-05T21:39:01.815Z,11.49
2023-05-05T21:41:28.963Z,11.51
2023-05-05T21:43:56.273Z,11.48
2023-05-05T21:46:23.462Z,11.45
2023-05-05T21:48:50.737Z,11.41
2023-05-05T21:51:17.920Z,11.35
2023-05-05T21:53:45.075Z,11.32
2023-05-05T21:56:12.224Z,11.26
2023-05-05T21:58:41.281Z,11.24
2023-05-05T22:01:08.500Z,11.24
2023-05-05T22:03:35.976Z,11.21
2023-05-05T22:06:02.972Z,11.18
2023-05-05T22:08:30.729Z,11.15
2023-05-05T22:10:57.878Z,11.12
2023-05-05T22:13:25.745Z,11.07
2023-05-05T22:15:53.072Z,11.03
2023-05-05T22:18:20.166Z,10.97
2023-05-05T22:20:47.197Z,10.94
2023-05-05T22:23:14.253Z,10.94
2023-05-05T22:25:41.495Z,10.94
2023-05-05T22:28:08.739Z,10.93
2023-05-05T22:30:35.806Z,10.93
2023-05-05T22:33:03.001Z,10.92
2023-05-05T22:35:30.427Z,10.89
2023-05-05T22:37:58.037Z,10.84
2023-05-05T22:40:25.204Z,10.77
2023-05-05T22:42:53.128Z,10.72
2023-05-05T22:45:21.356Z,10.68
2023-05-05T22:47:48.559Z,10.64
2023-05-05T22:50:15.686Z,10.59
2023-05-05T22:52:43.006Z,10.54
2023-05-05T22:55:10.618Z,10.45
2023-05-05T22:57:37.909Z,11.01
2023-05-05T23:00:06.173Z,11.71
2023-05-05T23:02:34.183Z,11.87
2023-05-05T23:05:01.615Z,11.77
2023-05-05T23:07:28.887Z,11.61
2023-05-05T23:09:56.223Z,11.41
2023-05-05T23:12:23.271Z,11.24
2023-05-05T23:14:50.526Z,11.09
2023-05-05T23:17:17.774Z,10.92
2023-05-05T23:19:47.598Z,10.79
2023-05-05T23:22:14.813Z,10.67
2023-05-05T23:24:41.910Z,10.57
2023-05-05T23:27:08.908Z,10.48
2023-05-05T23:29:36.187Z,10.37
2023-05-05T23:32:03.175Z,10.81
2023-05-05T23:34:30.611Z,11.46
2023-05-05T23:36:57.842Z,11.58
2023-05-05T23:39:24.911Z,11.44
2023-05-05T23:41:51.935Z,11.26
2023-05-05T23:44:18.969Z,11.07
2023-05-05T23:46:46.753Z,10.91
2023-05-05T23:49:13.792Z,10.76
2023-05-05T23:51:40.730Z,10.58
2023-05-05T23:54:07.820Z,10.46
2023-05-05T23:56:35.114Z,10.38
2023-05-05T23:59:02.178Z,10.26
